<?xml version="1.0" encoding="UTF-8" standalone="no" ?><gpx xmlns="http://www.topografix.com/GPX/1/1" xmlns:gpxx="http://www.garmin.com/xmlschemas/GpxExtensions/v3" xmlns:wptx1="http://www.garmin.com/xmlschemas/WaypointExtension/v1" xmlns:gpxtpx="http://www.garmin.com/xmlschemas/TrackPointExtension/v1" creator="Dakota 20" version="1.1" xmlns:xsi="http://www.w3.org/2001/XMLSchema-instance" xsi:schemaLocation="http://www.topografix.com/GPX/1/1 http://www.topografix.com/GPX/1/1/gpx.xsd http://www.garmin.com/xmlschemas/GpxExtensions/v3 http://www8.garmin.com/xmlschemas/GpxExtensionsv3.xsd http://www.garmin.com/xmlschemas/WaypointExtension/v1 http://www8.garmin.com/xmlschemas/WaypointExtensionv1.xsd http://www.garmin.com/xmlschemas/TrackPointExtension/v1 http://www.garmin.com/xmlschemas/TrackPointExtensionv1.xsd"><metadata><link href="http://www.garmin.com"><text>Garmin International</text></link><time>2019-07-21T12:43:23Z</time></metadata><trk><name>Week 18-JUL-19 08:33:26</name><extensions><gpxx:TrackExtension><gpxx:DisplayColor>DarkGreen</gpxx:DisplayColor></gpxx:TrackExtension></extensions><trkseg><trkpt lat="52.3238958512" lon="10.6710420828"><ele>63.58</ele><time>2019-07-18T06:33:26Z</time></trkpt></trkseg><trkseg><trkpt lat="52.3233646061" lon="10.6705277693"><ele>62.62</ele><time>2019-07-18T06:46:20Z</time></trkpt><trkpt lat="52.3233400472" lon="10.6705835089"><ele>79.45</ele><time>2019-07-18T07:01:52Z</time></trkpt></trkseg><trkseg><trkpt lat="52.3233390413" lon="10.6704729516"><ele>82.81</ele><time>2019-07-18T08:19:22Z</time></trkpt></trkseg><trkseg><trkpt lat="52.3231761809" lon="10.6697397027"><ele>84.73</ele><time>2019-07-18T08:20:15Z</time></trkpt><trkpt lat="52.3230969720" lon="10.6681306288"><ele>83.29</ele><time>2019-07-18T08:20:43Z</time></trkpt><trkpt lat="52.3227581754" lon="10.6670940388"><ele>83.77</ele><time>2019-07-18T08:21:07Z</time></trkpt><trkpt lat="52.3218561988" lon="10.6669924501"><ele>84.25</ele><time>2019-07-18T08:21:33Z</time></trkpt><trkpt lat="52.3209484387" lon="10.6668965612"><ele>79.45</ele><time>2019-07-18T08:21:51Z</time></trkpt><trkpt lat="52.3200379964" lon="10.6667699944"><ele>75.12</ele><time>2019-07-18T08:22:04Z</time></trkpt><trkpt lat="52.3191033304" lon="10.6666673161"><ele>74.64</ele><time>2019-07-18T08:22:23Z</time></trkpt><trkpt lat="52.3194267042" lon="10.6657878868"><ele>74.64</ele><time>2019-07-18T08:22:49Z</time></trkpt><trkpt lat="52.3200771399" lon="10.6645477004"><ele>75.12</ele><time>2019-07-18T08:23:14Z</time></trkpt><trkpt lat="52.3196837772" lon="10.6631723978"><ele>75.12</ele><time>2019-07-18T08:23:43Z</time></trkpt><trkpt lat="52.3196100164" lon="10.6620612927"><ele>76.56</ele><time>2019-07-18T08:24:12Z</time></trkpt><trkpt lat="52.3189913481" lon="10.6608667038"><ele>80.89</ele><time>2019-07-18T08:24:40Z</time></trkpt><trkpt lat="52.3187051900" lon="10.6593665108"><ele>84.25</ele><time>2019-07-18T08:25:11Z</time></trkpt><trkpt lat="52.3183856718" lon="10.6575388368"><ele>82.81</ele><time>2019-07-18T08:25:49Z</time></trkpt><trkpt lat="52.3180752899" lon="10.6559197046"><ele>84.25</ele><time>2019-07-18T08:26:15Z</time></trkpt><trkpt lat="52.3177497368" lon="10.6543739140"><ele>85.69</ele><time>2019-07-18T08:26:43Z</time></trkpt><trkpt lat="52.3174520954" lon="10.6527963560"><ele>86.18</ele><time>2019-07-18T08:27:08Z</time></trkpt><trkpt lat="52.3171835393" lon="10.6513200514"><ele>85.69</ele><time>2019-07-18T08:27:31Z</time></trkpt><trkpt lat="52.3168950342" lon="10.6498558167"><ele>85.69</ele><time>2019-07-18T08:27:55Z</time></trkpt><trkpt lat="52.3165825568" lon="10.6483387761"><ele>86.18</ele><time>2019-07-18T08:28:20Z</time></trkpt><trkpt lat="52.3162666429" lon="10.6467750482"><ele>85.69</ele><time>2019-07-18T08:28:44Z</time></trkpt><trkpt lat="52.3160453606" lon="10.6452026870"><ele>84.73</ele><time>2019-07-18T08:29:07Z</time></trkpt><trkpt lat="52.3161819857" lon="10.6436783541"><ele>83.77</ele><time>2019-07-18T08:29:29Z</time></trkpt><trkpt lat="52.3162837420" lon="10.6421863753"><ele>83.29</ele><time>2019-07-18T08:29:53Z</time></trkpt><trkpt lat="52.3160098214" lon="10.6407113280"><ele>82.81</ele><time>2019-07-18T08:30:24Z</time></trkpt><trkpt lat="52.3163166828" lon="10.6393227819"><ele>82.33</ele><time>2019-07-18T08:30:53Z</time></trkpt><trkpt lat="52.3165116459" lon="10.6378261093"><ele>81.37</ele><time>2019-07-18T08:31:13Z</time></trkpt><trkpt lat="52.3167085368" lon="10.6362980045"><ele>78.97</ele><time>2019-07-18T08:31:32Z</time></trkpt><trkpt lat="52.3169198446" lon="10.6347709894"><ele>75.60</ele><time>2019-07-18T08:31:47Z</time></trkpt><trkpt lat="52.3172111996" lon="10.6333939265"><ele>74.16</ele><time>2019-07-18T08:32:04Z</time></trkpt><trkpt lat="52.3168909270" lon="10.6320467871"><ele>73.68</ele><time>2019-07-18T08:32:25Z</time></trkpt><trkpt lat="52.3164374661" lon="10.6307607517"><ele>74.64</ele><time>2019-07-18T08:32:45Z</time></trkpt><trkpt lat="52.3160615377" lon="10.6293752231"><ele>74.16</ele><time>2019-07-18T08:33:04Z</time></trkpt><trkpt lat="52.3157292791" lon="10.6279554963"><ele>73.68</ele><time>2019-07-18T08:33:24Z</time></trkpt><trkpt lat="52.3154217470" lon="10.6265845522"><ele>73.68</ele><time>2019-07-18T08:33:45Z</time></trkpt><trkpt lat="52.3150599003" lon="10.6251822598"><ele>73.20</ele><time>2019-07-18T08:34:07Z</time></trkpt><trkpt lat="52.3147142306" lon="10.6237432547"><ele>73.20</ele><time>2019-07-18T08:34:26Z</time></trkpt><trkpt lat="52.3143845703" lon="10.6223645154"><ele>72.72</ele><time>2019-07-18T08:34:44Z</time></trkpt><trkpt lat="52.3137710989" lon="10.6212066393"><ele>72.24</ele><time>2019-07-18T08:35:05Z</time></trkpt><trkpt lat="52.3131436296" lon="10.6201294810"><ele>71.76</ele><time>2019-07-18T08:35:26Z</time></trkpt><trkpt lat="52.3125102930" lon="10.6190280989"><ele>71.76</ele><time>2019-07-18T08:35:47Z</time></trkpt><trkpt lat="52.3118581809" lon="10.6179126352"><ele>71.76</ele><time>2019-07-18T08:36:08Z</time></trkpt><trkpt lat="52.3111959267" lon="10.6167611293"><ele>71.76</ele><time>2019-07-18T08:36:29Z</time></trkpt><trkpt lat="52.3105474189" lon="10.6156436540"><ele>71.27</ele><time>2019-07-18T08:36:49Z</time></trkpt><trkpt lat="52.3098791298" lon="10.6146003585"><ele>71.27</ele><time>2019-07-18T08:37:09Z</time></trkpt><trkpt lat="52.3091186397" lon="10.6135129742"><ele>71.27</ele><time>2019-07-18T08:37:29Z</time></trkpt><trkpt lat="52.3084351793" lon="10.6124645658"><ele>70.79</ele><time>2019-07-18T08:37:48Z</time></trkpt><trkpt lat="52.3077426665" lon="10.6114762556"><ele>70.79</ele><time>2019-07-18T08:38:08Z</time></trkpt><trkpt lat="52.3070586193" lon="10.6104587764"><ele>71.27</ele><time>2019-07-18T08:38:28Z</time></trkpt><trkpt lat="52.3063794337" lon="10.6094356813"><ele>70.79</ele><time>2019-07-18T08:38:48Z</time></trkpt><trkpt lat="52.3056901060" lon="10.6084848382"><ele>71.27</ele><time>2019-07-18T08:39:10Z</time></trkpt><trkpt lat="52.3053449392" lon="10.6073883176"><ele>71.27</ele><time>2019-07-18T08:39:39Z</time></trkpt><trkpt lat="52.3061916791" lon="10.6067487784"><ele>71.27</ele><time>2019-07-18T08:40:03Z</time></trkpt><trkpt lat="52.3060199339" lon="10.6058567762"><ele>70.79</ele><time>2019-07-18T08:40:28Z</time></trkpt><trkpt lat="52.3053023592" lon="10.6048794463"><ele>70.79</ele><time>2019-07-18T08:40:50Z</time></trkpt><trkpt lat="52.3045817669" lon="10.6038990151"><ele>70.79</ele><time>2019-07-18T08:41:15Z</time></trkpt><trkpt lat="52.3038859852" lon="10.6029160693"><ele>70.79</ele><time>2019-07-18T08:41:39Z</time></trkpt><trkpt lat="52.3032280058" lon="10.6019068044"><ele>70.79</ele><time>2019-07-18T08:42:04Z</time></trkpt><trkpt lat="52.3027261812" lon="10.6006185059"><ele>70.31</ele><time>2019-07-18T08:42:27Z</time></trkpt><trkpt lat="52.3024053220" lon="10.5992370006"><ele>69.83</ele><time>2019-07-18T08:42:51Z</time></trkpt><trkpt lat="52.3022804316" lon="10.5977352988"><ele>69.83</ele><time>2019-07-18T08:43:13Z</time></trkpt><trkpt lat="52.3020972870" lon="10.5962672085"><ele>69.83</ele><time>2019-07-18T08:43:36Z</time></trkpt><trkpt lat="52.3019294813" lon="10.5947252735"><ele>69.83</ele><time>2019-07-18T08:44:13Z</time></trkpt><trkpt lat="52.3017070256" lon="10.5934236478"><ele>70.31</ele><time>2019-07-18T08:44:40Z</time></trkpt><trkpt lat="52.3010097351" lon="10.5943843815"><ele>70.31</ele><time>2019-07-18T08:45:07Z</time></trkpt><trkpt lat="52.3003651667" lon="10.5950131919"><ele>70.79</ele><time>2019-07-18T08:45:36Z</time></trkpt><trkpt lat="52.3005462158" lon="10.5935277510"><ele>71.27</ele><time>2019-07-18T08:46:01Z</time></trkpt><trkpt lat="52.2999805212" lon="10.5924749002"><ele>71.27</ele><time>2019-07-18T08:46:22Z</time></trkpt><trkpt lat="52.2992513794" lon="10.5915476102"><ele>70.79</ele><time>2019-07-18T08:46:43Z</time></trkpt><trkpt lat="52.2985493951" lon="10.5906321388"><ele>71.27</ele><time>2019-07-18T08:47:05Z</time></trkpt><trkpt lat="52.2980903182" lon="10.5894073751"><ele>69.83</ele><time>2019-07-18T08:47:28Z</time></trkpt><trkpt lat="52.2973805387" lon="10.5890399124"><ele>70.31</ele><time>2019-07-18T08:47:52Z</time></trkpt><trkpt lat="52.2964907158" lon="10.5895794556"><ele>70.31</ele><time>2019-07-18T08:48:14Z</time></trkpt><trkpt lat="52.2956193332" lon="10.5901551247"><ele>69.83</ele><time>2019-07-18T08:48:36Z</time></trkpt><trkpt lat="52.2947292589" lon="10.5907338113"><ele>70.31</ele><time>2019-07-18T08:48:58Z</time></trkpt><trkpt lat="52.2941605467" lon="10.5899662804"><ele>71.27</ele><time>2019-07-18T08:49:26Z</time></trkpt><trkpt lat="52.2938748077" lon="10.5884690210"><ele>70.79</ele><time>2019-07-18T08:49:51Z</time></trkpt><trkpt lat="52.2935956065" lon="10.5870392360"><ele>71.27</ele><time>2019-07-18T08:50:13Z</time></trkpt><trkpt lat="52.2932485957" lon="10.5858398695"><ele>70.79</ele><time>2019-07-18T08:50:42Z</time></trkpt><trkpt lat="52.2924759518" lon="10.5865577795"><ele>72.72</ele><time>2019-07-18T08:51:10Z</time></trkpt><trkpt lat="52.2915655095" lon="10.5869648885"><ele>74.64</ele><time>2019-07-18T08:51:36Z</time></trkpt><trkpt lat="52.2908261418" lon="10.5878926814"><ele>75.12</ele><time>2019-07-18T08:52:02Z</time></trkpt><trkpt lat="52.2898838483" lon="10.5883264448"><ele>77.52</ele><time>2019-07-18T08:52:28Z</time></trkpt><trkpt lat="52.2889442369" lon="10.5883182306"><ele>82.33</ele><time>2019-07-18T08:52:55Z</time></trkpt><trkpt lat="52.2884507105" lon="10.5872257333"><ele>84.25</ele><time>2019-07-18T08:53:23Z</time></trkpt><trkpt lat="52.2881479561" lon="10.5857037473"><ele>83.77</ele><time>2019-07-18T08:53:48Z</time></trkpt><trkpt lat="52.2878936492" lon="10.5841400195"><ele>83.29</ele><time>2019-07-18T08:54:13Z</time></trkpt><trkpt lat="52.2874708660" lon="10.5828401539"><ele>82.33</ele><time>2019-07-18T08:54:36Z</time></trkpt><trkpt lat="52.2865999024" lon="10.5822948273"><ele>81.37</ele><time>2019-07-18T08:54:56Z</time></trkpt><trkpt lat="52.2856871970" lon="10.5821457133"><ele>81.85</ele><time>2019-07-18T08:55:17Z</time></trkpt><trkpt lat="52.2847888246" lon="10.5821454618"><ele>82.33</ele><time>2019-07-18T08:55:39Z</time></trkpt><trkpt lat="52.2839367203" lon="10.5826131720"><ele>81.37</ele><time>2019-07-18T08:56:04Z</time></trkpt><trkpt lat="52.2831897251" lon="10.5824865215"><ele>80.89</ele><time>2019-07-18T08:56:53Z</time></trkpt><trkpt lat="52.2823869064" lon="10.5832005758"><ele>81.85</ele><time>2019-07-18T08:57:14Z</time></trkpt><trkpt lat="52.2815514822" lon="10.5838987883"><ele>80.41</ele><time>2019-07-18T08:57:36Z</time></trkpt><trkpt lat="52.2806943487" lon="10.5844705179"><ele>78.00</ele><time>2019-07-18T08:58:00Z</time></trkpt><trkpt lat="52.2803622577" lon="10.5835247040"><ele>77.52</ele><time>2019-07-18T08:58:29Z</time></trkpt><trkpt lat="52.2799824737" lon="10.5819977727"><ele>76.08</ele><time>2019-07-18T08:59:00Z</time></trkpt><trkpt lat="52.2795809805" lon="10.5805067997"><ele>78.00</ele><time>2019-07-18T08:59:25Z</time></trkpt><trkpt lat="52.2791211493" lon="10.5791170802"><ele>77.04</ele><time>2019-07-18T08:59:47Z</time></trkpt><trkpt lat="52.2786150500" lon="10.5777442921"><ele>78.48</ele><time>2019-07-18T09:00:11Z</time></trkpt><trkpt lat="52.2781188414" lon="10.5764198676"><ele>78.97</ele><time>2019-07-18T09:00:33Z</time></trkpt><trkpt lat="52.2776114848" lon="10.5750307348"><ele>79.45</ele><time>2019-07-18T09:00:57Z</time></trkpt><trkpt lat="52.2768388409" lon="10.5746876635"><ele>78.00</ele><time>2019-07-18T09:01:28Z</time></trkpt><trkpt lat="52.2759132273" lon="10.5755622312"><ele>76.08</ele><time>2019-07-18T09:01:56Z</time></trkpt><trkpt lat="52.2750280984" lon="10.5758501496"><ele>76.08</ele><time>2019-07-18T09:02:27Z</time></trkpt><trkpt lat="52.2741405386" lon="10.5748558044"><ele>76.08</ele><time>2019-07-18T09:02:49Z</time></trkpt><trkpt lat="52.2733625304" lon="10.5757446215"><ele>75.12</ele><time>2019-07-18T09:03:12Z</time></trkpt><trkpt lat="52.2727951594" lon="10.5770360213"><ele>75.12</ele><time>2019-07-18T09:03:36Z</time></trkpt><trkpt lat="52.2721891478" lon="10.5783296842"><ele>75.60</ele><time>2019-07-18T09:04:09Z</time></trkpt><trkpt lat="52.2713970579" lon="10.5781905446"><ele>75.12</ele><time>2019-07-18T09:04:39Z</time></trkpt><trkpt lat="52.2706853505" lon="10.5770037510"><ele>75.60</ele><time>2019-07-18T09:05:11Z</time></trkpt><trkpt lat="52.2701532673" lon="10.5756685976"><ele>75.60</ele><time>2019-07-18T09:05:39Z</time></trkpt><trkpt lat="52.2694260534" lon="10.5751594808"><ele>75.60</ele><time>2019-07-18T09:06:13Z</time></trkpt><trkpt lat="52.2688958980" lon="10.5757683422"><ele>75.60</ele><time>2019-07-18T09:08:03Z</time></trkpt><trkpt lat="52.2686838359" lon="10.5755339842"><ele>75.60</ele><time>2019-07-18T09:10:05Z</time></trkpt><trkpt lat="52.2677609045" lon="10.5758727808"><ele>74.64</ele><time>2019-07-18T09:10:39Z</time></trkpt><trkpt lat="52.2668248974" lon="10.5759602878"><ele>75.12</ele><time>2019-07-18T09:11:09Z</time></trkpt><trkpt lat="52.2661139444" lon="10.5750862230"><ele>73.68</ele><time>2019-07-18T09:11:54Z</time></trkpt><trkpt lat="52.2661260143" lon="10.5732810125"><ele>73.20</ele><time>2019-07-18T09:12:28Z</time></trkpt><trkpt lat="52.2664801497" lon="10.5715883709"><ele>73.20</ele><time>2019-07-18T09:12:53Z</time></trkpt><trkpt lat="52.2666270845" lon="10.5699212104"><ele>73.20</ele><time>2019-07-18T09:13:16Z</time></trkpt><trkpt lat="52.2665086482" lon="10.5684219394"><ele>73.68</ele><time>2019-07-18T09:13:36Z</time></trkpt><trkpt lat="52.2663907986" lon="10.5668991990"><ele>73.68</ele><time>2019-07-18T09:13:56Z</time></trkpt><trkpt lat="52.2659092583" lon="10.5655419175"><ele>75.12</ele><time>2019-07-18T09:14:23Z</time></trkpt><trkpt lat="52.2650398035" lon="10.5647012126"><ele>76.08</ele><time>2019-07-18T09:14:48Z</time></trkpt><trkpt lat="52.2641011979" lon="10.5639698077"><ele>77.04</ele><time>2019-07-18T09:15:15Z</time></trkpt><trkpt lat="52.2636284586" lon="10.5625747237"><ele>78.00</ele><time>2019-07-18T09:15:44Z</time></trkpt><trkpt lat="52.2632943559" lon="10.5611368082"><ele>78.00</ele><time>2019-07-18T09:16:09Z</time></trkpt><trkpt lat="52.2629206069" lon="10.5597043410"><ele>77.52</ele><time>2019-07-18T09:16:31Z</time></trkpt><trkpt lat="52.2625228856" lon="10.5582142062"><ele>78.00</ele><time>2019-07-18T09:16:54Z</time></trkpt><trkpt lat="52.2621127591" lon="10.5566993449"><ele>78.97</ele><time>2019-07-18T09:17:17Z</time></trkpt><trkpt lat="52.2616952565" lon="10.5551864952"><ele>79.45</ele><time>2019-07-18T09:17:41Z</time></trkpt><trkpt lat="52.2611881513" lon="10.5537583027"><ele>78.97</ele><time>2019-07-18T09:18:11Z</time></trkpt><trkpt lat="52.2607332654" lon="10.5521847680"><ele>78.48</ele><time>2019-07-18T09:18:37Z</time></trkpt><trkpt lat="52.2603381425" lon="10.5507410690"><ele>78.48</ele><time>2019-07-18T09:18:56Z</time></trkpt><trkpt lat="52.2599626333" lon="10.5492815282"><ele>78.48</ele><time>2019-07-18T09:19:15Z</time></trkpt><trkpt lat="52.2597245872" lon="10.5476838537"><ele>79.93</ele><time>2019-07-18T09:19:35Z</time></trkpt><trkpt lat="52.2595497407" lon="10.5462001730"><ele>78.97</ele><time>2019-07-18T09:19:55Z</time></trkpt><trkpt lat="52.2590713017" lon="10.5448758323"><ele>79.45</ele><time>2019-07-18T09:20:16Z</time></trkpt><trkpt lat="52.2583550680" lon="10.5441774521"><ele>79.45</ele><time>2019-07-18T09:20:43Z</time></trkpt><trkpt lat="52.2574110143" lon="10.5442458484"><ele>78.97</ele><time>2019-07-18T09:21:05Z</time></trkpt><trkpt lat="52.2570163943" lon="10.5429841205"><ele>78.97</ele><time>2019-07-18T09:22:32Z</time></trkpt><trkpt lat="52.2569337487" lon="10.5415142700"><ele>79.45</ele><time>2019-07-18T09:22:51Z</time></trkpt><trkpt lat="52.2573007084" lon="10.5406408757"><ele>80.41</ele><time>2019-07-18T09:23:15Z</time></trkpt><trkpt lat="52.2582960594" lon="10.5408681091"><ele>80.41</ele><time>2019-07-18T09:23:34Z</time></trkpt><trkpt lat="52.2592220921" lon="10.5407466553"><ele>79.45</ele><time>2019-07-18T09:24:31Z</time></trkpt><trkpt lat="52.2594704479" lon="10.5393022858"><ele>79.93</ele><time>2019-07-18T09:24:51Z</time></trkpt><trkpt lat="52.2597115953" lon="10.5378080439"><ele>78.48</ele><time>2019-07-18T09:25:10Z</time></trkpt><trkpt lat="52.2597782314" lon="10.5364725552"><ele>77.52</ele><time>2019-07-18T09:25:32Z</time></trkpt></trkseg><trkseg><trkpt lat="52.2598905489" lon="10.5366784148"><ele>80.89</ele><time>2019-07-18T09:27:44Z</time></trkpt></trkseg><trkseg><trkpt lat="52.2596128564" lon="10.5363474973"><ele>79.93</ele><time>2019-07-18T09:52:23Z</time></trkpt><trkpt lat="52.2601804789" lon="10.5354482029"><ele>80.41</ele><time>2019-07-18T09:57:29Z</time></trkpt><trkpt lat="52.2600135952" lon="10.5343276262"><ele>79.45</ele><time>2019-07-18T09:58:08Z</time></trkpt><trkpt lat="52.2591682803" lon="10.5336210318"><ele>79.93</ele><time>2019-07-18T09:58:30Z</time></trkpt><trkpt lat="52.2584943753" lon="10.5325188115"><ele>79.45</ele><time>2019-07-18T09:58:50Z</time></trkpt><trkpt lat="52.2582828999" lon="10.5314010009"><ele>78.97</ele><time>2019-07-18T09:59:13Z</time></trkpt><trkpt lat="52.2584590036" lon="10.5302282888"><ele>78.48</ele><time>2019-07-18T10:00:10Z</time></trkpt><trkpt lat="52.2584681399" lon="10.5287449434"><ele>77.52</ele><time>2019-07-18T10:00:31Z</time></trkpt><trkpt lat="52.2584555671" lon="10.5271725822"><ele>76.56</ele><time>2019-07-18T10:01:22Z</time></trkpt><trkpt lat="52.2582994122" lon="10.5256613251"><ele>76.56</ele><time>2019-07-18T10:01:44Z</time></trkpt><trkpt lat="52.2587170824" lon="10.5244082306"><ele>76.08</ele><time>2019-07-18T10:02:05Z</time></trkpt><trkpt lat="52.2587528732" lon="10.5230975524"><ele>74.64</ele><time>2019-07-18T10:03:37Z</time></trkpt><trkpt lat="52.2578830831" lon="10.5223784689"><ele>73.68</ele><time>2019-07-18T10:04:00Z</time></trkpt><trkpt lat="52.2573126946" lon="10.5212779250"><ele>74.64</ele><time>2019-07-18T10:04:24Z</time></trkpt><trkpt lat="52.2568962816" lon="10.5202601943"><ele>74.16</ele><time>2019-07-18T10:04:54Z</time></trkpt><trkpt lat="52.2559683211" lon="10.5206358712"><ele>74.16</ele><time>2019-07-18T10:05:15Z</time></trkpt><trkpt lat="52.2550452221" lon="10.5206757691"><ele>75.12</ele><time>2019-07-18T10:05:36Z</time></trkpt><trkpt lat="52.2541284095" lon="10.5202096514"><ele>74.64</ele><time>2019-07-18T10:05:58Z</time></trkpt><trkpt lat="52.2531739622" lon="10.5201713461"><ele>75.12</ele><time>2019-07-18T10:06:21Z</time></trkpt><trkpt lat="52.2522358596" lon="10.5202446040"><ele>74.64</ele><time>2019-07-18T10:06:46Z</time></trkpt><trkpt lat="52.2512713540" lon="10.5201012734"><ele>75.12</ele><time>2019-07-18T10:07:11Z</time></trkpt><trkpt lat="52.2504428867" lon="10.5196720362"><ele>76.56</ele><time>2019-07-18T10:07:40Z</time></trkpt><trkpt lat="52.2495125793" lon="10.5196614750"><ele>76.56</ele><time>2019-07-18T10:08:06Z</time></trkpt><trkpt lat="52.2488711122" lon="10.5189444870"><ele>75.12</ele><time>2019-07-18T10:08:40Z</time></trkpt><trkpt lat="52.2480366938" lon="10.5183897726"><ele>75.60</ele><time>2019-07-18T10:09:09Z</time></trkpt><trkpt lat="52.2478779405" lon="10.5172090139"><ele>75.60</ele><time>2019-07-18T10:09:40Z</time></trkpt><trkpt lat="52.2470894549" lon="10.5164253898"><ele>77.04</ele><time>2019-07-18T10:10:07Z</time></trkpt><trkpt lat="52.2464707866" lon="10.5152214970"><ele>77.04</ele><time>2019-07-18T10:10:30Z</time></trkpt><trkpt lat="52.2455476876" lon="10.5148368515"><ele>77.04</ele><time>2019-07-18T10:10:54Z</time></trkpt><trkpt lat="52.2445903067" lon="10.5145273078"><ele>78.00</ele><time>2019-07-18T10:11:18Z</time></trkpt><trkpt lat="52.2436072771" lon="10.5142125674"><ele>79.45</ele><time>2019-07-18T10:11:44Z</time></trkpt><trkpt lat="52.2427318711" lon="10.5136056338"><ele>80.41</ele><time>2019-07-18T10:12:10Z</time></trkpt><trkpt lat="52.2420364246" lon="10.5125449039"><ele>82.33</ele><time>2019-07-18T10:12:36Z</time></trkpt><trkpt lat="52.2413745895" lon="10.5112524144"><ele>83.29</ele><time>2019-07-18T10:13:02Z</time></trkpt><trkpt lat="52.2408751119" lon="10.5098841526"><ele>79.45</ele><time>2019-07-18T10:13:25Z</time></trkpt><trkpt lat="52.2399084270" lon="10.5097984895"><ele>77.52</ele><time>2019-07-18T10:13:45Z</time></trkpt><trkpt lat="52.2391179297" lon="10.5097569991"><ele>77.52</ele><time>2019-07-18T10:14:10Z</time></trkpt><trkpt lat="52.2400898952" lon="10.5098234676"><ele>78.48</ele><time>2019-07-18T10:14:33Z</time></trkpt><trkpt lat="52.2406076454" lon="10.5105781741"><ele>81.37</ele><time>2019-07-18T10:15:02Z</time></trkpt><trkpt lat="52.2402608022" lon="10.5091754626"><ele>84.25</ele><time>2019-07-18T10:15:29Z</time></trkpt><trkpt lat="52.2397525236" lon="10.5078477692"><ele>83.77</ele><time>2019-07-18T10:15:52Z</time></trkpt><trkpt lat="52.2390538082" lon="10.5068875384"><ele>82.81</ele><time>2019-07-18T10:16:26Z</time></trkpt><trkpt lat="52.2383343894" lon="10.5058228690"><ele>81.37</ele><time>2019-07-18T10:16:47Z</time></trkpt><trkpt lat="52.2378534358" lon="10.5044393521"><ele>80.89</ele><time>2019-07-18T10:17:05Z</time></trkpt><trkpt lat="52.2377929185" lon="10.5028012767"><ele>79.93</ele><time>2019-07-18T10:17:27Z</time></trkpt><trkpt lat="52.2380136978" lon="10.5012794584"><ele>78.48</ele><time>2019-07-18T10:17:50Z</time></trkpt><trkpt lat="52.2385386564" lon="10.4999821912"><ele>78.48</ele><time>2019-07-18T10:18:13Z</time></trkpt><trkpt lat="52.2394304071" lon="10.4991181847"><ele>79.93</ele><time>2019-07-18T10:18:41Z</time></trkpt><trkpt lat="52.2403763048" lon="10.4987958167"><ele>80.41</ele><time>2019-07-18T10:19:07Z</time></trkpt><trkpt lat="52.2413238790" lon="10.4989942163"><ele>81.37</ele><time>2019-07-18T10:19:31Z</time></trkpt><trkpt lat="52.2421855386" lon="10.4997558799"><ele>82.33</ele><time>2019-07-18T10:19:54Z</time></trkpt><trkpt lat="52.2430207953" lon="10.5006097443"><ele>83.77</ele><time>2019-07-18T10:20:18Z</time></trkpt><trkpt lat="52.2438860592" lon="10.5014617648"><ele>84.73</ele><time>2019-07-18T10:20:41Z</time></trkpt><trkpt lat="52.2447473835" lon="10.5023670103"><ele>84.25</ele><time>2019-07-18T10:21:01Z</time></trkpt><trkpt lat="52.2455619369" lon="10.5032256525"><ele>83.77</ele><time>2019-07-18T10:21:23Z</time></trkpt><trkpt lat="52.2464020550" lon="10.5041025672"><ele>82.81</ele><time>2019-07-18T10:21:47Z</time></trkpt><trkpt lat="52.2472994216" lon="10.5050155241"><ele>82.33</ele><time>2019-07-18T10:22:12Z</time></trkpt><trkpt lat="52.2480949480" lon="10.5058784410"><ele>81.37</ele><time>2019-07-18T10:22:34Z</time></trkpt><trkpt lat="52.2490171250" lon="10.5063913297"><ele>80.89</ele><time>2019-07-18T10:22:55Z</time></trkpt><trkpt lat="52.2499903478" lon="10.5062679481"><ele>79.93</ele><time>2019-07-18T10:23:18Z</time></trkpt><trkpt lat="52.2508532647" lon="10.5054388940"><ele>79.45</ele><time>2019-07-18T10:23:46Z</time></trkpt><trkpt lat="52.2514721006" lon="10.5041292217"><ele>78.97</ele><time>2019-07-18T10:24:12Z</time></trkpt><trkpt lat="52.2520526312" lon="10.5028247461"><ele>78.97</ele><time>2019-07-18T10:24:35Z</time></trkpt><trkpt lat="52.2525964491" lon="10.5015439913"><ele>78.97</ele><time>2019-07-18T10:25:00Z</time></trkpt><trkpt lat="52.2532438673" lon="10.5003352370"><ele>79.45</ele><time>2019-07-18T10:25:27Z</time></trkpt><trkpt lat="52.2540350351" lon="10.4994124733"><ele>79.93</ele><time>2019-07-18T10:26:00Z</time></trkpt><trkpt lat="52.2549401131" lon="10.4989911150"><ele>79.45</ele><time>2019-07-18T10:26:23Z</time></trkpt><trkpt lat="52.2559757810" lon="10.4990605172"><ele>78.48</ele><time>2019-07-18T10:26:46Z</time></trkpt><trkpt lat="52.2569075134" lon="10.4992775247"><ele>78.00</ele><time>2019-07-18T10:27:09Z</time></trkpt><trkpt lat="52.2579453606" lon="10.4995659459"><ele>77.52</ele><time>2019-07-18T10:27:39Z</time></trkpt><trkpt lat="52.2588738240" lon="10.4996030778"><ele>76.56</ele><time>2019-07-18T10:28:01Z</time></trkpt><trkpt lat="52.2598404251" lon="10.4991309252"><ele>76.08</ele><time>2019-07-18T10:28:27Z</time></trkpt><trkpt lat="52.2608110495" lon="10.4984080698"><ele>75.60</ele><time>2019-07-18T10:29:17Z</time></trkpt><trkpt lat="52.2616611421" lon="10.4977122881"><ele>75.60</ele><time>2019-07-18T10:29:41Z</time></trkpt><trkpt lat="52.2627796233" lon="10.4975012317"><ele>75.12</ele><time>2019-07-18T10:30:25Z</time></trkpt><trkpt lat="52.2637685202" lon="10.4976334982"><ele>75.12</ele><time>2019-07-18T10:30:50Z</time></trkpt><trkpt lat="52.2647570819" lon="10.4978179000"><ele>75.60</ele><time>2019-07-18T10:31:14Z</time></trkpt><trkpt lat="52.2656766605" lon="10.4979903996"><ele>75.60</ele><time>2019-07-18T10:31:34Z</time></trkpt><trkpt lat="52.2666595224" lon="10.4981351551"><ele>75.60</ele><time>2019-07-18T10:32:04Z</time></trkpt><trkpt lat="52.2676474974" lon="10.4980158806"><ele>75.60</ele><time>2019-07-18T10:32:33Z</time></trkpt><trkpt lat="52.2686038725" lon="10.4977699555"><ele>75.12</ele><time>2019-07-18T10:32:54Z</time></trkpt><trkpt lat="52.2695621755" lon="10.4976774193"><ele>75.12</ele><time>2019-07-18T10:33:18Z</time></trkpt><trkpt lat="52.2704882082" lon="10.4981001187"><ele>74.64</ele><time>2019-07-18T10:33:45Z</time></trkpt><trkpt lat="52.2714495286" lon="10.4986057151"><ele>74.64</ele><time>2019-07-18T10:34:33Z</time></trkpt><trkpt lat="52.2724675946" lon="10.4990351200"><ele>74.64</ele><time>2019-07-18T10:34:56Z</time></trkpt><trkpt lat="52.2734864149" lon="10.4996852204"><ele>74.64</ele><time>2019-07-18T10:35:15Z</time></trkpt><trkpt lat="52.2742201667" lon="10.5006773025"><ele>74.64</ele><time>2019-07-18T10:35:36Z</time></trkpt><trkpt lat="52.2751392424" lon="10.5011181068"><ele>74.16</ele><time>2019-07-18T10:36:00Z</time></trkpt><trkpt lat="52.2757698130" lon="10.5022452213"><ele>76.56</ele><time>2019-07-18T10:36:25Z</time></trkpt><trkpt lat="52.2762512695" lon="10.5036650319"><ele>75.12</ele><time>2019-07-18T10:36:45Z</time></trkpt><trkpt lat="52.2764333244" lon="10.5051078927"><ele>74.16</ele><time>2019-07-18T10:38:02Z</time></trkpt><trkpt lat="52.2767327260" lon="10.5064999592"><ele>72.72</ele><time>2019-07-18T10:38:23Z</time></trkpt><trkpt lat="52.2770462092" lon="10.5079786107"><ele>72.24</ele><time>2019-07-18T10:38:44Z</time></trkpt><trkpt lat="52.2771683335" lon="10.5096471962"><ele>71.76</ele><time>2019-07-18T10:39:06Z</time></trkpt><trkpt lat="52.2772608697" lon="10.5112167075"><ele>71.27</ele><time>2019-07-18T10:39:28Z</time></trkpt><trkpt lat="52.2772210557" lon="10.5128414556"><ele>71.27</ele><time>2019-07-18T10:39:59Z</time></trkpt><trkpt lat="52.2770544235" lon="10.5141937081"><ele>71.27</ele><time>2019-07-18T10:40:28Z</time></trkpt><trkpt lat="52.2771992628" lon="10.5152178928"><ele>71.27</ele><time>2019-07-18T10:41:01Z</time></trkpt><trkpt lat="52.2775049508" lon="10.5164247192"><ele>71.27</ele><time>2019-07-18T10:41:30Z</time></trkpt><trkpt lat="52.2774368059" lon="10.5179851782"><ele>71.76</ele><time>2019-07-18T10:41:53Z</time></trkpt><trkpt lat="52.2776690684" lon="10.5195556115"><ele>72.72</ele><time>2019-07-18T10:42:24Z</time></trkpt><trkpt lat="52.2780245449" lon="10.5209160782"><ele>73.20</ele><time>2019-07-18T10:44:29Z</time></trkpt><trkpt lat="52.2781296540" lon="10.5224325322"><ele>73.68</ele><time>2019-07-18T10:44:49Z</time></trkpt><trkpt lat="52.2781263851" lon="10.5239956733"><ele>73.20</ele><time>2019-07-18T10:45:11Z</time></trkpt><trkpt lat="52.2779399715" lon="10.5256119557"><ele>74.16</ele><time>2019-07-18T10:45:38Z</time></trkpt><trkpt lat="52.2778704017" lon="10.5271853227"><ele>74.16</ele><time>2019-07-18T10:46:10Z</time></trkpt><trkpt lat="52.2778368741" lon="10.5289142579"><ele>75.12</ele><time>2019-07-18T10:47:07Z</time></trkpt><trkpt lat="52.2780397162" lon="10.5303748883"><ele>75.12</ele><time>2019-07-18T10:47:32Z</time></trkpt><trkpt lat="52.2782721464" lon="10.5318629276"><ele>75.12</ele><time>2019-07-18T10:47:55Z</time></trkpt><trkpt lat="52.2786471527" lon="10.5332273338"><ele>75.12</ele><time>2019-07-18T10:48:17Z</time></trkpt><trkpt lat="52.2793301102" lon="10.5342933442"><ele>75.12</ele><time>2019-07-18T10:48:42Z</time></trkpt><trkpt lat="52.2801650316" lon="10.5350408424"><ele>74.64</ele><time>2019-07-18T10:49:02Z</time></trkpt><trkpt lat="52.2810245957" lon="10.5356689822"><ele>74.64</ele><time>2019-07-18T10:49:23Z</time></trkpt><trkpt lat="52.2818713356" lon="10.5363464076"><ele>73.68</ele><time>2019-07-18T10:49:44Z</time></trkpt><trkpt lat="52.2826233599" lon="10.5372710992"><ele>74.16</ele><time>2019-07-18T10:50:08Z</time></trkpt><trkpt lat="52.2819701582" lon="10.5374054611"><ele>72.72</ele><time>2019-07-18T10:51:26Z</time></trkpt><trkpt lat="52.2811200656" lon="10.5369210709"><ele>73.20</ele><time>2019-07-18T10:51:49Z</time></trkpt><trkpt lat="52.2802521195" lon="10.5363180768"><ele>73.68</ele><time>2019-07-18T10:52:11Z</time></trkpt><trkpt lat="52.2794131748" lon="10.5357438326"><ele>74.16</ele><time>2019-07-18T10:52:32Z</time></trkpt><trkpt lat="52.2785421275" lon="10.5351293553"><ele>74.16</ele><time>2019-07-18T10:52:54Z</time></trkpt><trkpt lat="52.2776144184" lon="10.5347205698"><ele>74.64</ele><time>2019-07-18T10:53:16Z</time></trkpt><trkpt lat="52.2766888048" lon="10.5348428618"><ele>75.12</ele><time>2019-07-18T10:53:39Z</time></trkpt><trkpt lat="52.2757886723" lon="10.5352445226"><ele>75.60</ele><time>2019-07-18T10:54:01Z</time></trkpt><trkpt lat="52.2749768849" lon="10.5357010011"><ele>76.08</ele><time>2019-07-18T10:55:25Z</time></trkpt><trkpt lat="52.2744913213" lon="10.5349220708"><ele>74.64</ele><time>2019-07-18T10:55:49Z</time></trkpt><trkpt lat="52.2742593102" lon="10.5337043479"><ele>73.20</ele><time>2019-07-18T10:56:35Z</time></trkpt><trkpt lat="52.2732597683" lon="10.5335411523"><ele>73.20</ele><time>2019-07-18T10:57:00Z</time></trkpt><trkpt lat="52.2723098472" lon="10.5334044434"><ele>74.16</ele><time>2019-07-18T10:57:25Z</time></trkpt><trkpt lat="52.2716562264" lon="10.5336808786"><ele>74.64</ele><time>2019-07-18T10:59:55Z</time></trkpt><trkpt lat="52.2717418056" lon="10.5336178467"><ele>79.93</ele><time>2019-07-18T11:54:17Z</time></trkpt><trkpt lat="52.2716281470" lon="10.5345256906"><ele>79.45</ele><time>2019-07-18T11:56:32Z</time></trkpt><trkpt lat="52.2718313243" lon="10.5358455051"><ele>79.45</ele><time>2019-07-18T11:57:04Z</time></trkpt><trkpt lat="52.2722961009" lon="10.5371647328"><ele>79.93</ele><time>2019-07-18T11:57:32Z</time></trkpt><trkpt lat="52.2727366537" lon="10.5385013111"><ele>79.45</ele><time>2019-07-18T11:59:01Z</time></trkpt><trkpt lat="52.2732787952" lon="10.5398461875"><ele>78.97</ele><time>2019-07-18T11:59:23Z</time></trkpt><trkpt lat="52.2727872804" lon="10.5407205876"><ele>79.45</ele><time>2019-07-18T11:59:51Z</time></trkpt><trkpt lat="52.2732544877" lon="10.5420301761"><ele>78.97</ele><time>2019-07-18T12:00:14Z</time></trkpt><trkpt lat="52.2736793663" lon="10.5433614738"><ele>78.48</ele><time>2019-07-18T12:00:45Z</time></trkpt><trkpt lat="52.2727509029" lon="10.5438988376"><ele>78.48</ele><time>2019-07-18T12:01:14Z</time></trkpt><trkpt lat="52.2718387842" lon="10.5443794560"><ele>78.97</ele><time>2019-07-18T12:01:48Z</time></trkpt><trkpt lat="52.2709672339" lon="10.5448899139"><ele>78.97</ele><time>2019-07-18T12:02:13Z</time></trkpt><trkpt lat="52.2710913699" lon="10.5461016856"><ele>79.45</ele><time>2019-07-18T12:02:42Z</time></trkpt><trkpt lat="52.2710253205" lon="10.5469140597"><ele>79.45</ele><time>2019-07-18T12:07:23Z</time></trkpt><trkpt lat="52.2700503375" lon="10.5477147829"><ele>78.48</ele><time>2019-07-18T12:15:11Z</time></trkpt><trkpt lat="52.2705825046" lon="10.5473237671"><ele>77.52</ele><time>2019-07-18T12:25:07Z</time></trkpt><trkpt lat="52.2709798906" lon="10.5468811188"><ele>76.08</ele><time>2019-07-18T12:30:55Z</time></trkpt><trkpt lat="52.2714105528" lon="10.5470450688"><ele>75.60</ele><time>2019-07-18T12:36:07Z</time></trkpt><trkpt lat="52.2720448114" lon="10.5483329482"><ele>75.60</ele><time>2019-07-18T12:36:55Z</time></trkpt><trkpt lat="52.2726023756" lon="10.5496324785"><ele>76.56</ele><time>2019-07-18T12:37:31Z</time></trkpt><trkpt lat="52.2731803078" lon="10.5508237146"><ele>76.56</ele><time>2019-07-18T12:38:02Z</time></trkpt><trkpt lat="52.2738876566" lon="10.5521634780"><ele>78.97</ele><time>2019-07-18T12:38:38Z</time></trkpt><trkpt lat="52.2744605597" lon="10.5535875633"><ele>77.04</ele><time>2019-07-18T12:39:11Z</time></trkpt><trkpt lat="52.2749984264" lon="10.5547600240"><ele>75.12</ele><time>2019-07-18T12:39:31Z</time></trkpt><trkpt lat="52.2755827289" lon="10.5560230929"><ele>75.12</ele><time>2019-07-18T12:39:54Z</time></trkpt><trkpt lat="52.2761908360" lon="10.5573579948"><ele>74.64</ele><time>2019-07-18T12:40:19Z</time></trkpt><trkpt lat="52.2768918145" lon="10.5584577005"><ele>75.60</ele><time>2019-07-18T12:40:54Z</time></trkpt><trkpt lat="52.2773129214" lon="10.5583520047"><ele>75.60</ele><time>2019-07-18T12:41:26Z</time></trkpt><trkpt lat="52.2773827426" lon="10.5596041773"><ele>78.00</ele><time>2019-07-18T12:41:58Z</time></trkpt><trkpt lat="52.2768365778" lon="10.5607851036"><ele>79.45</ele><time>2019-07-18T12:42:25Z</time></trkpt><trkpt lat="52.2773845866" lon="10.5617086217"><ele>81.37</ele><time>2019-07-18T12:42:54Z</time></trkpt><trkpt lat="52.2773431800" lon="10.5631699227"><ele>82.81</ele><time>2019-07-18T12:43:21Z</time></trkpt><trkpt lat="52.2773611173" lon="10.5647054035"><ele>83.29</ele><time>2019-07-18T12:43:47Z</time></trkpt><trkpt lat="52.2775188647" lon="10.5662740767"><ele>83.77</ele><time>2019-07-18T12:44:14Z</time></trkpt><trkpt lat="52.2777488641" lon="10.5678695720"><ele>82.81</ele><time>2019-07-18T12:44:44Z</time></trkpt><trkpt lat="52.2783241980" lon="10.5691572838"><ele>82.81</ele><time>2019-07-18T12:45:14Z</time></trkpt><trkpt lat="52.2788105998" lon="10.5704951193"><ele>82.81</ele><time>2019-07-18T12:45:39Z</time></trkpt><trkpt lat="52.2793003544" lon="10.5718230642"><ele>83.29</ele><time>2019-07-18T12:46:03Z</time></trkpt><trkpt lat="52.2799340263" lon="10.5725366157"><ele>83.29</ele><time>2019-07-18T12:46:34Z</time></trkpt><trkpt lat="52.2805520240" lon="10.5734706949"><ele>82.81</ele><time>2019-07-18T12:47:01Z</time></trkpt><trkpt lat="52.2809688561" lon="10.5748316646"><ele>82.81</ele><time>2019-07-18T12:47:24Z</time></trkpt><trkpt lat="52.2813829221" lon="10.5762264971"><ele>82.81</ele><time>2019-07-18T12:47:46Z</time></trkpt><trkpt lat="52.2818371374" lon="10.5775582977"><ele>83.29</ele><time>2019-07-18T12:48:08Z</time></trkpt><trkpt lat="52.2823192645" lon="10.5788495298"><ele>83.29</ele><time>2019-07-18T12:48:28Z</time></trkpt><trkpt lat="52.2827408742" lon="10.5801717751"><ele>83.29</ele><time>2019-07-18T12:48:49Z</time></trkpt><trkpt lat="52.2831837740" lon="10.5815036595"><ele>83.29</ele><time>2019-07-18T12:49:10Z</time></trkpt><trkpt lat="52.2830903996" lon="10.5825621262"><ele>83.29</ele><time>2019-07-18T12:50:29Z</time></trkpt><trkpt lat="52.2822852340" lon="10.5832545552"><ele>83.29</ele><time>2019-07-18T12:50:51Z</time></trkpt><trkpt lat="52.2814754583" lon="10.5839567073"><ele>81.85</ele><time>2019-07-18T12:51:12Z</time></trkpt><trkpt lat="52.2806363460" lon="10.5844985135"><ele>79.45</ele><time>2019-07-18T12:51:35Z</time></trkpt><trkpt lat="52.2804904170" lon="10.5858203396"><ele>78.00</ele><time>2019-07-18T12:52:05Z</time></trkpt><trkpt lat="52.2800859064" lon="10.5869736057"><ele>78.00</ele><time>2019-07-18T12:52:27Z</time></trkpt><trkpt lat="52.2798444238" lon="10.5881284643"><ele>77.04</ele><time>2019-07-18T12:52:54Z</time></trkpt><trkpt lat="52.2803078592" lon="10.5896713212"><ele>77.04</ele><time>2019-07-18T12:53:21Z</time></trkpt><trkpt lat="52.2800871637" lon="10.5912975781"><ele>77.52</ele><time>2019-07-18T12:53:48Z</time></trkpt><trkpt lat="52.2799955495" lon="10.5928781535"><ele>77.04</ele><time>2019-07-18T12:54:16Z</time></trkpt><trkpt lat="52.2800877504" lon="10.5945339147"><ele>78.00</ele><time>2019-07-18T12:54:43Z</time></trkpt><trkpt lat="52.2798878420" lon="10.5960364547"><ele>78.48</ele><time>2019-07-18T12:55:08Z</time></trkpt><trkpt lat="52.2796094790" lon="10.5974557623"><ele>79.45</ele><time>2019-07-18T12:55:31Z</time></trkpt><trkpt lat="52.2793109156" lon="10.5989209190"><ele>80.41</ele><time>2019-07-18T12:55:57Z</time></trkpt><trkpt lat="52.2789856978" lon="10.6003330182"><ele>81.37</ele><time>2019-07-18T12:56:24Z</time></trkpt><trkpt lat="52.2786969412" lon="10.6018117536"><ele>81.85</ele><time>2019-07-18T12:56:48Z</time></trkpt><trkpt lat="52.2783904988" lon="10.6033164728"><ele>83.29</ele><time>2019-07-18T12:57:13Z</time></trkpt><trkpt lat="52.2782402113" lon="10.6047880836"><ele>85.69</ele><time>2019-07-18T12:57:39Z</time></trkpt><trkpt lat="52.2784335818" lon="10.6061037909"><ele>86.66</ele><time>2019-07-18T12:58:04Z</time></trkpt><trkpt lat="52.2793177888" lon="10.6057529245"><ele>86.18</ele><time>2019-07-18T12:58:24Z</time></trkpt><trkpt lat="52.2802146524" lon="10.6053631660"><ele>86.18</ele><time>2019-07-18T12:58:44Z</time></trkpt><trkpt lat="52.2808790021" lon="10.6048465893"><ele>86.66</ele><time>2019-07-18T12:59:35Z</time></trkpt><trkpt lat="52.2813715227" lon="10.6047468446"><ele>85.69</ele><time>2019-07-18T13:01:35Z</time></trkpt><trkpt lat="52.2823264729" lon="10.6043567508"><ele>84.73</ele><time>2019-07-18T13:01:59Z</time></trkpt><trkpt lat="52.2832390945" lon="10.6039659027"><ele>84.25</ele><time>2019-07-18T13:02:18Z</time></trkpt><trkpt lat="52.2841373831" lon="10.6035776529"><ele>84.73</ele><time>2019-07-18T13:02:36Z</time></trkpt><trkpt lat="52.2850564588" lon="10.6031918339"><ele>85.69</ele><time>2019-07-18T13:02:56Z</time></trkpt><trkpt lat="52.2859812342" lon="10.6027999800"><ele>85.69</ele><time>2019-07-18T13:03:15Z</time></trkpt><trkpt lat="52.2868564725" lon="10.6024233811"><ele>85.69</ele><time>2019-07-18T13:03:33Z</time></trkpt><trkpt lat="52.2877533361" lon="10.6020384841"><ele>85.69</ele><time>2019-07-18T13:03:54Z</time></trkpt><trkpt lat="52.2886472661" lon="10.6016563531"><ele>85.21</ele><time>2019-07-18T13:04:17Z</time></trkpt><trkpt lat="52.2895587981" lon="10.6012751441"><ele>85.69</ele><time>2019-07-18T13:04:40Z</time></trkpt><trkpt lat="52.2904725093" lon="10.6008788478"><ele>86.66</ele><time>2019-07-18T13:05:07Z</time></trkpt><trkpt lat="52.2914158925" lon="10.6005227007"><ele>86.66</ele><time>2019-07-18T13:05:40Z</time></trkpt><trkpt lat="52.2913454007" lon="10.6013686862"><ele>85.69</ele><time>2019-07-18T13:06:12Z</time></trkpt><trkpt lat="52.2920575272" lon="10.6023973133"><ele>84.25</ele><time>2019-07-18T13:06:36Z</time></trkpt><trkpt lat="52.2925559990" lon="10.6034751423"><ele>82.81</ele><time>2019-07-18T13:06:56Z</time></trkpt><trkpt lat="52.2925173584" lon="10.6050212681"><ele>79.93</ele><time>2019-07-18T13:07:16Z</time></trkpt><trkpt lat="52.2924709227" lon="10.6065399852"><ele>78.00</ele><time>2019-07-18T13:07:35Z</time></trkpt><trkpt lat="52.2924076393" lon="10.6080291979"><ele>77.52</ele><time>2019-07-18T13:07:55Z</time></trkpt><trkpt lat="52.2923585214" lon="10.6095297262"><ele>77.04</ele><time>2019-07-18T13:08:16Z</time></trkpt><trkpt lat="52.2923170310" lon="10.6110043544"><ele>77.04</ele><time>2019-07-18T13:08:38Z</time></trkpt><trkpt lat="52.2922545858" lon="10.6125239097"><ele>78.00</ele><time>2019-07-18T13:09:00Z</time></trkpt><trkpt lat="52.2920742072" lon="10.6139842048"><ele>77.52</ele><time>2019-07-18T13:09:23Z</time></trkpt><trkpt lat="52.2918844409" lon="10.6155211106"><ele>77.52</ele><time>2019-07-18T13:09:44Z</time></trkpt><trkpt lat="52.2916664276" lon="10.6170364749"><ele>77.52</ele><time>2019-07-18T13:10:06Z</time></trkpt><trkpt lat="52.2915077582" lon="10.6185616460"><ele>77.04</ele><time>2019-07-18T13:10:29Z</time></trkpt><trkpt lat="52.2916579619" lon="10.6201102864"><ele>77.52</ele><time>2019-07-18T13:10:52Z</time></trkpt><trkpt lat="52.2917638253" lon="10.6216398999"><ele>77.52</ele><time>2019-07-18T13:11:16Z</time></trkpt><trkpt lat="52.2918708622" lon="10.6231272686"><ele>77.04</ele><time>2019-07-18T13:11:47Z</time></trkpt><trkpt lat="52.2919606324" lon="10.6246428005"><ele>77.52</ele><time>2019-07-18T13:12:13Z</time></trkpt><trkpt lat="52.2920502350" lon="10.6261401437"><ele>78.00</ele><time>2019-07-18T13:12:35Z</time></trkpt><trkpt lat="52.2921409272" lon="10.6276715174"><ele>78.48</ele><time>2019-07-18T13:12:57Z</time></trkpt><trkpt lat="52.2923572641" lon="10.6289433036"><ele>79.45</ele><time>2019-07-18T13:13:53Z</time></trkpt><trkpt lat="52.2932926845" lon="10.6287443172"><ele>81.37</ele><time>2019-07-18T13:14:20Z</time></trkpt><trkpt lat="52.2942799889" lon="10.6284740847"><ele>83.77</ele><time>2019-07-18T13:14:46Z</time></trkpt><trkpt lat="52.2952835541" lon="10.6281887647"><ele>86.18</ele><time>2019-07-18T13:15:12Z</time></trkpt><trkpt lat="52.2962128557" lon="10.6279659737"><ele>87.62</ele><time>2019-07-18T13:15:35Z</time></trkpt><trkpt lat="52.2968534008" lon="10.6286218576"><ele>90.50</ele><time>2019-07-18T13:16:09Z</time></trkpt><trkpt lat="52.2970844898" lon="10.6304118130"><ele>90.50</ele><time>2019-07-18T13:16:42Z</time></trkpt><trkpt lat="52.2971508745" lon="10.6321673188"><ele>90.50</ele><time>2019-07-18T13:17:06Z</time></trkpt><trkpt lat="52.2973854840" lon="10.6338706892"><ele>89.54</ele><time>2019-07-18T13:17:31Z</time></trkpt><trkpt lat="52.2975915950" lon="10.6355800107"><ele>89.06</ele><time>2019-07-18T13:17:55Z</time></trkpt><trkpt lat="52.2979305591" lon="10.6373240333"><ele>90.98</ele><time>2019-07-18T13:18:24Z</time></trkpt><trkpt lat="52.2987135965" lon="10.6384589430"><ele>92.90</ele><time>2019-07-18T13:18:54Z</time></trkpt><trkpt lat="52.2994570713" lon="10.6396504305"><ele>94.83</ele><time>2019-07-18T13:19:23Z</time></trkpt><trkpt lat="52.3002173100" lon="10.6408290099"><ele>94.35</ele><time>2019-07-18T13:19:53Z</time></trkpt><trkpt lat="52.3008246627" lon="10.6420518458"><ele>91.94</ele><time>2019-07-18T13:20:14Z</time></trkpt><trkpt lat="52.3013451789" lon="10.6433932856"><ele>90.50</ele><time>2019-07-18T13:20:33Z</time></trkpt><trkpt lat="52.3019810300" lon="10.6444707792"><ele>90.98</ele><time>2019-07-18T13:20:54Z</time></trkpt><trkpt lat="52.3026319686" lon="10.6456130650"><ele>90.50</ele><time>2019-07-18T13:21:17Z</time></trkpt><trkpt lat="52.3032008484" lon="10.6458645221"><ele>90.50</ele><time>2019-07-18T13:21:51Z</time></trkpt><trkpt lat="52.3034236394" lon="10.6466716155"><ele>93.39</ele><time>2019-07-18T13:31:41Z</time></trkpt><trkpt lat="52.3041717242" lon="10.6478017475"><ele>94.35</ele><time>2019-07-18T13:32:13Z</time></trkpt><trkpt lat="52.3049543425" lon="10.6488905568"><ele>94.83</ele><time>2019-07-18T13:32:39Z</time></trkpt><trkpt lat="52.3057196941" lon="10.6499503646"><ele>94.35</ele><time>2019-07-18T13:33:04Z</time></trkpt><trkpt lat="52.3065201659" lon="10.6510882080"><ele>93.87</ele><time>2019-07-18T13:33:29Z</time></trkpt><trkpt lat="52.3066692799" lon="10.6526561268"><ele>92.42</ele><time>2019-07-18T13:33:51Z</time></trkpt><trkpt lat="52.3068207409" lon="10.6542091258"><ele>90.50</ele><time>2019-07-18T13:34:13Z</time></trkpt><trkpt lat="52.3069181386" lon="10.6557173654"><ele>88.58</ele><time>2019-07-18T13:34:35Z</time></trkpt><trkpt lat="52.3070515785" lon="10.6571920775"><ele>87.14</ele><time>2019-07-18T13:34:56Z</time></trkpt><trkpt lat="52.3073793948" lon="10.6582379714"><ele>86.66</ele><time>2019-07-18T13:35:18Z</time></trkpt><trkpt lat="52.3082457483" lon="10.6577370688"><ele>86.66</ele><time>2019-07-18T13:35:40Z</time></trkpt><trkpt lat="52.3091386724" lon="10.6573307980"><ele>85.69</ele><time>2019-07-18T13:36:00Z</time></trkpt><trkpt lat="52.3101477697" lon="10.6569832005"><ele>86.18</ele><time>2019-07-18T13:36:24Z</time></trkpt><trkpt lat="52.3111083359" lon="10.6571184006"><ele>87.62</ele><time>2019-07-18T13:36:48Z</time></trkpt><trkpt lat="52.3119631223" lon="10.6577301119"><ele>89.06</ele><time>2019-07-18T13:37:12Z</time></trkpt><trkpt lat="52.3128203396" lon="10.6584501173"><ele>90.02</ele><time>2019-07-18T13:37:38Z</time></trkpt><trkpt lat="52.3137061391" lon="10.6590473279"><ele>90.98</ele><time>2019-07-18T13:37:59Z</time></trkpt><trkpt lat="52.3146363627" lon="10.6591319013"><ele>90.98</ele><time>2019-07-18T13:38:20Z</time></trkpt><trkpt lat="52.3155893851" lon="10.6589554623"><ele>90.98</ele><time>2019-07-18T13:38:41Z</time></trkpt><trkpt lat="52.3165595904" lon="10.6587666180"><ele>90.50</ele><time>2019-07-18T13:39:02Z</time></trkpt><trkpt lat="52.3175679334" lon="10.6585575733"><ele>89.06</ele><time>2019-07-18T13:39:24Z</time></trkpt><trkpt lat="52.3185104784" lon="10.6587630138"><ele>87.14</ele><time>2019-07-18T13:39:54Z</time></trkpt><trkpt lat="52.3188227043" lon="10.6602366362"><ele>86.66</ele><time>2019-07-18T13:40:17Z</time></trkpt><trkpt lat="52.3192992993" lon="10.6615473144"><ele>80.89</ele><time>2019-07-18T13:40:38Z</time></trkpt><trkpt lat="52.3193331622" lon="10.6627662107"><ele>79.45</ele><time>2019-07-18T13:41:05Z</time></trkpt><trkpt lat="52.3200166225" lon="10.6637209095"><ele>78.48</ele><time>2019-07-18T13:41:31Z</time></trkpt><trkpt lat="52.3198038898" lon="10.6651727390"><ele>78.00</ele><time>2019-07-18T13:41:59Z</time></trkpt><trkpt lat="52.3190618400" lon="10.6661798246"><ele>78.00</ele><time>2019-07-18T13:42:25Z</time></trkpt><trkpt lat="52.3195498344" lon="10.6667395681"><ele>78.00</ele><time>2019-07-18T13:42:54Z</time></trkpt><trkpt lat="52.3204808123" lon="10.6668679789"><ele>78.97</ele><time>2019-07-18T13:43:21Z</time></trkpt><trkpt lat="52.3214816116" lon="10.6669807155"><ele>86.66</ele><time>2019-07-18T13:43:53Z</time></trkpt><trkpt lat="52.3224809859" lon="10.6671151612"><ele>87.14</ele><time>2019-07-18T13:44:20Z</time></trkpt><trkpt lat="52.3230683059" lon="10.6677760743"><ele>87.14</ele><time>2019-07-18T13:44:44Z</time></trkpt><trkpt lat="52.3230708204" lon="10.6692873314"><ele>86.66</ele><time>2019-07-18T13:45:07Z</time></trkpt><trkpt lat="52.3233271390" lon="10.6705037132"><ele>86.66</ele><time>2019-07-18T13:46:31Z</time></trkpt><trkpt lat="52.3233035859" lon="10.6705510709"><ele>87.14</ele><time>2019-07-18T13:48:48Z</time></trkpt></trkseg><trkseg><trkpt lat="52.2873788327" lon="10.6029088609"><ele>77.04</ele><time>2019-07-20T14:29:34Z</time></trkpt><trkpt lat="52.2864004970" lon="10.6032036524"><ele>77.04</ele><time>2019-07-20T14:29:53Z</time></trkpt><trkpt lat="52.2852890566" lon="10.6031413749"><ele>78.48</ele><time>2019-07-20T14:30:13Z</time></trkpt><trkpt lat="52.2843819670" lon="10.6034858711"><ele>86.18</ele><time>2019-07-20T14:30:32Z</time></trkpt><trkpt lat="52.2834767215" lon="10.6038539205"><ele>85.69</ele><time>2019-07-20T14:30:51Z</time></trkpt><trkpt lat="52.2826119605" lon="10.6042382307"><ele>85.69</ele><time>2019-07-20T14:31:10Z</time></trkpt><trkpt lat="52.2819673084" lon="10.6048219465"><ele>87.14</ele><time>2019-07-20T14:31:35Z</time></trkpt><trkpt lat="52.2821888421" lon="10.6062597781"><ele>87.62</ele><time>2019-07-20T14:31:57Z</time></trkpt><trkpt lat="52.2823470924" lon="10.6076645013"><ele>88.58</ele><time>2019-07-20T14:32:19Z</time></trkpt><trkpt lat="52.2814493906" lon="10.6080510747"><ele>89.54</ele><time>2019-07-20T14:32:48Z</time></trkpt><trkpt lat="52.2810124420" lon="10.6089971401"><ele>90.50</ele><time>2019-07-20T14:33:27Z</time></trkpt><trkpt lat="52.2800719924" lon="10.6090145744"><ele>90.98</ele><time>2019-07-20T14:33:57Z</time></trkpt><trkpt lat="52.2797620296" lon="10.6078159623"><ele>90.02</ele><time>2019-07-20T14:34:23Z</time></trkpt><trkpt lat="52.2788859531" lon="10.6075418741"><ele>89.06</ele><time>2019-07-20T14:34:44Z</time></trkpt><trkpt lat="52.2780778538" lon="10.6072213501"><ele>89.54</ele><time>2019-07-20T14:35:08Z</time></trkpt><trkpt lat="52.2783424705" lon="10.6058484782"><ele>87.62</ele><time>2019-07-20T14:35:40Z</time></trkpt><trkpt lat="52.2782520298" lon="10.6042658072"><ele>86.66</ele><time>2019-07-20T14:36:01Z</time></trkpt><trkpt lat="52.2785293031" lon="10.6027859822"><ele>83.77</ele><time>2019-07-20T14:36:19Z</time></trkpt><trkpt lat="52.2788290400" lon="10.6013502460"><ele>82.81</ele><time>2019-07-20T14:36:38Z</time></trkpt><trkpt lat="52.2791198920" lon="10.5998874363"><ele>82.81</ele><time>2019-07-20T14:36:59Z</time></trkpt><trkpt lat="52.2794453613" lon="10.5984212738"><ele>81.85</ele><time>2019-07-20T14:37:18Z</time></trkpt><trkpt lat="52.2797430027" lon="10.5969028920"><ele>80.41</ele><time>2019-07-20T14:37:36Z</time></trkpt><trkpt lat="52.2800429910" lon="10.5954420939"><ele>79.93</ele><time>2019-07-20T14:37:52Z</time></trkpt><trkpt lat="52.2801412269" lon="10.5939879175"><ele>79.45</ele><time>2019-07-20T14:38:09Z</time></trkpt><trkpt lat="52.2799766902" lon="10.5924795102"><ele>79.45</ele><time>2019-07-20T14:38:27Z</time></trkpt><trkpt lat="52.2801666241" lon="10.5908960011"><ele>79.45</ele><time>2019-07-20T14:38:46Z</time></trkpt><trkpt lat="52.2802365292" lon="10.5893238075"><ele>79.45</ele><time>2019-07-20T14:39:05Z</time></trkpt><trkpt lat="52.2797704116" lon="10.5878659431"><ele>78.97</ele><time>2019-07-20T14:39:27Z</time></trkpt><trkpt lat="52.2803935222" lon="10.5867747869"><ele>80.41</ele><time>2019-07-20T14:39:49Z</time></trkpt><trkpt lat="52.2805094440" lon="10.5853743386"><ele>79.93</ele><time>2019-07-20T14:40:08Z</time></trkpt><trkpt lat="52.2804037482" lon="10.5838315655"><ele>81.37</ele><time>2019-07-20T14:40:30Z</time></trkpt><trkpt lat="52.2800119780" lon="10.5824513175"><ele>79.93</ele><time>2019-07-20T14:40:52Z</time></trkpt><trkpt lat="52.2797318548" lon="10.5808840692"><ele>79.93</ele><time>2019-07-20T14:41:14Z</time></trkpt><trkpt lat="52.2792540025" lon="10.5794889014"><ele>81.37</ele><time>2019-07-20T14:41:35Z</time></trkpt><trkpt lat="52.2787718754" lon="10.5781180412"><ele>82.33</ele><time>2019-07-20T14:41:56Z</time></trkpt><trkpt lat="52.2782459948" lon="10.5767977238"><ele>83.29</ele><time>2019-07-20T14:42:16Z</time></trkpt><trkpt lat="52.2777623590" lon="10.5754566193"><ele>82.81</ele><time>2019-07-20T14:42:35Z</time></trkpt><trkpt lat="52.2772024479" lon="10.5744440854"><ele>83.29</ele><time>2019-07-20T14:42:58Z</time></trkpt><trkpt lat="52.2763652634" lon="10.5751032382"><ele>80.89</ele><time>2019-07-20T14:43:18Z</time></trkpt><trkpt lat="52.2755502909" lon="10.5760050472"><ele>79.45</ele><time>2019-07-20T14:43:40Z</time></trkpt><trkpt lat="52.2747157048" lon="10.5755317211"><ele>79.45</ele><time>2019-07-20T14:44:11Z</time></trkpt><trkpt lat="52.2738596611" lon="10.5746812094"><ele>78.48</ele><time>2019-07-20T14:46:23Z</time></trkpt><trkpt lat="52.2732628696" lon="10.5733931623"><ele>78.48</ele><time>2019-07-20T14:46:45Z</time></trkpt><trkpt lat="52.2727014497" lon="10.5721384753"><ele>77.52</ele><time>2019-07-20T14:47:04Z</time></trkpt><trkpt lat="52.2721120343" lon="10.5708286352"><ele>77.52</ele><time>2019-07-20T14:47:26Z</time></trkpt><trkpt lat="52.2713464312" lon="10.5701001640"><ele>77.04</ele><time>2019-07-20T14:47:48Z</time></trkpt><trkpt lat="52.2704845201" lon="10.5707417149"><ele>77.52</ele><time>2019-07-20T14:48:11Z</time></trkpt><trkpt lat="52.2696316615" lon="10.5712640751"><ele>76.08</ele><time>2019-07-20T14:48:38Z</time></trkpt><trkpt lat="52.2690228000" lon="10.5723491963"><ele>76.08</ele><time>2019-07-20T14:49:03Z</time></trkpt><trkpt lat="52.2683359869" lon="10.5734046455"><ele>76.56</ele><time>2019-07-20T14:49:25Z</time></trkpt><trkpt lat="52.2676557954" lon="10.5726235360"><ele>76.08</ele><time>2019-07-20T14:49:55Z</time></trkpt><trkpt lat="52.2669021785" lon="10.5716886185"><ele>75.60</ele><time>2019-07-20T14:50:25Z</time></trkpt><trkpt lat="52.2666772082" lon="10.5704293214"><ele>75.60</ele><time>2019-07-20T14:50:53Z</time></trkpt><trkpt lat="52.2665555868" lon="10.5688873027"><ele>75.12</ele><time>2019-07-20T14:51:14Z</time></trkpt><trkpt lat="52.2664496396" lon="10.5673425179"><ele>75.60</ele><time>2019-07-20T14:51:33Z</time></trkpt><trkpt lat="52.2661939915" lon="10.5658531375"><ele>77.04</ele><time>2019-07-20T14:51:53Z</time></trkpt><trkpt lat="52.2654018179" lon="10.5650284421"><ele>78.00</ele><time>2019-07-20T14:52:12Z</time></trkpt><trkpt lat="52.2645769548" lon="10.5642823689"><ele>78.48</ele><time>2019-07-20T14:52:31Z</time></trkpt><trkpt lat="52.2639068216" lon="10.5633436795"><ele>79.45</ele><time>2019-07-20T14:52:57Z</time></trkpt><trkpt lat="52.2634803504" lon="10.5619958695"><ele>78.48</ele><time>2019-07-20T14:53:19Z</time></trkpt><trkpt lat="52.2631739918" lon="10.5604712851"><ele>78.48</ele><time>2019-07-20T14:53:43Z</time></trkpt><trkpt lat="52.2627658769" lon="10.5590289272"><ele>78.00</ele><time>2019-07-20T14:54:03Z</time></trkpt><trkpt lat="52.2623639647" lon="10.5575967953"><ele>79.45</ele><time>2019-07-20T14:54:23Z</time></trkpt><trkpt lat="52.2619580291" lon="10.5561440438"><ele>80.41</ele><time>2019-07-20T14:54:43Z</time></trkpt><trkpt lat="52.2615751438" lon="10.5547019374"><ele>79.93</ele><time>2019-07-20T14:55:02Z</time></trkpt><trkpt lat="52.2610722296" lon="10.5533683766"><ele>79.45</ele><time>2019-07-20T14:55:23Z</time></trkpt><trkpt lat="52.2606740892" lon="10.5519698560"><ele>78.97</ele><time>2019-07-20T14:55:41Z</time></trkpt><trkpt lat="52.2602771223" lon="10.5505186971"><ele>78.48</ele><time>2019-07-20T14:55:59Z</time></trkpt><trkpt lat="52.2598711029" lon="10.5490864813"><ele>78.00</ele><time>2019-07-20T14:56:17Z</time></trkpt><trkpt lat="52.2596949991" lon="10.5475684348"><ele>78.97</ele><time>2019-07-20T14:56:36Z</time></trkpt><trkpt lat="52.2594989464" lon="10.5460639670"><ele>78.97</ele><time>2019-07-20T14:56:54Z</time></trkpt><trkpt lat="52.2590036597" lon="10.5448319949"><ele>79.45</ele><time>2019-07-20T14:57:12Z</time></trkpt><trkpt lat="52.2582835704" lon="10.5442568287"><ele>79.93</ele><time>2019-07-20T14:57:55Z</time></trkpt><trkpt lat="52.2573680989" lon="10.5442713294"><ele>79.45</ele><time>2019-07-20T14:58:17Z</time></trkpt><trkpt lat="52.2568967845" lon="10.5432993639"><ele>79.45</ele><time>2019-07-20T14:58:47Z</time></trkpt><trkpt lat="52.2561300918" lon="10.5429382715"><ele>80.41</ele><time>2019-07-20T14:59:16Z</time></trkpt><trkpt lat="52.2554559354" lon="10.5426495988"><ele>80.89</ele><time>2019-07-20T15:03:04Z</time></trkpt></trkseg><trkseg><trkpt lat="52.2555086575" lon="10.5419542361"><ele>80.41</ele><time>2019-07-20T15:14:48Z</time></trkpt><trkpt lat="52.2561331093" lon="10.5414992664"><ele>79.93</ele><time>2019-07-20T15:17:05Z</time></trkpt><trkpt lat="52.2565496061" lon="10.5405244511"><ele>81.37</ele><time>2019-07-20T15:17:47Z</time></trkpt><trkpt lat="52.2575411014" lon="10.5406768341"><ele>81.37</ele><time>2019-07-20T15:18:17Z</time></trkpt><trkpt lat="52.2585107200" lon="10.5408898182"><ele>81.85</ele><time>2019-07-20T15:18:36Z</time></trkpt><trkpt lat="52.2592540272" lon="10.5402927753"><ele>82.33</ele><time>2019-07-20T15:19:12Z</time></trkpt><trkpt lat="52.2595561948" lon="10.5388423707"><ele>81.85</ele><time>2019-07-20T15:19:30Z</time></trkpt><trkpt lat="52.2598131001" lon="10.5373370647"><ele>80.41</ele><time>2019-07-20T15:19:47Z</time></trkpt><trkpt lat="52.2596701048" lon="10.5366350804"><ele>79.93</ele><time>2019-07-20T15:21:34Z</time></trkpt></trkseg><trkseg><trkpt lat="52.2595208231" lon="10.5365149677"><ele>82.81</ele><time>2019-07-20T15:23:12Z</time></trkpt></trkseg><trkseg><trkpt lat="52.2595307976" lon="10.5367411114"><ele>81.85</ele><time>2019-07-20T15:25:09Z</time></trkpt></trkseg><trkseg><trkpt lat="52.2598103341" lon="10.5368135311"><ele>83.29</ele><time>2019-07-20T15:29:51Z</time></trkpt></trkseg><trkseg><trkpt lat="52.2602255736" lon="10.5373926368"><ele>82.81</ele><time>2019-07-20T15:32:56Z</time></trkpt></trkseg><trkseg><trkpt lat="52.2593130358" lon="10.5362179969"><ele>79.45</ele><time>2019-07-20T15:36:23Z</time></trkpt><trkpt lat="52.2596834321" lon="10.5374182854"><ele>78.97</ele><time>2019-07-20T15:38:30Z</time></trkpt><trkpt lat="52.2594746388" lon="10.5388905667"><ele>80.41</ele><time>2019-07-20T15:38:50Z</time></trkpt><trkpt lat="52.2591096070" lon="10.5402678810"><ele>80.89</ele><time>2019-07-20T15:39:14Z</time></trkpt><trkpt lat="52.2589095309" lon="10.5417604465"><ele>80.89</ele><time>2019-07-20T15:40:15Z</time></trkpt><trkpt lat="52.2588043381" lon="10.5432261061"><ele>79.93</ele><time>2019-07-20T15:40:33Z</time></trkpt><trkpt lat="52.2587874066" lon="10.5444971379"><ele>79.45</ele><time>2019-07-20T15:41:02Z</time></trkpt><trkpt lat="52.2593748942" lon="10.5457452033"><ele>79.45</ele><time>2019-07-20T15:41:20Z</time></trkpt><trkpt lat="52.2596334759" lon="10.5472043250"><ele>78.97</ele><time>2019-07-20T15:41:36Z</time></trkpt><trkpt lat="52.2597774770" lon="10.5487578269"><ele>78.48</ele><time>2019-07-20T15:41:52Z</time></trkpt><trkpt lat="52.2601846699" lon="10.5501622986"><ele>78.48</ele><time>2019-07-20T15:42:10Z</time></trkpt><trkpt lat="52.2605654597" lon="10.5516500864"><ele>78.97</ele><time>2019-07-20T15:42:28Z</time></trkpt><trkpt lat="52.2609782685" lon="10.5531496927"><ele>78.97</ele><time>2019-07-20T15:42:45Z</time></trkpt><trkpt lat="52.2614805121" lon="10.5545098241"><ele>78.97</ele><time>2019-07-20T15:43:02Z</time></trkpt><trkpt lat="52.2618664149" lon="10.5559500866"><ele>78.97</ele><time>2019-07-20T15:43:19Z</time></trkpt><trkpt lat="52.2622612864" lon="10.5573801231"><ele>78.48</ele><time>2019-07-20T15:43:35Z</time></trkpt><trkpt lat="52.2626429144" lon="10.5588311981"><ele>77.04</ele><time>2019-07-20T15:43:51Z</time></trkpt><trkpt lat="52.2630584892" lon="10.5602253601"><ele>77.04</ele><time>2019-07-20T15:44:08Z</time></trkpt><trkpt lat="52.2633729782" lon="10.5617020838"><ele>78.00</ele><time>2019-07-20T15:44:32Z</time></trkpt><trkpt lat="52.2637715377" lon="10.5631230678"><ele>77.52</ele><time>2019-07-20T15:44:54Z</time></trkpt><trkpt lat="52.2643805668" lon="10.5641931854"><ele>76.56</ele><time>2019-07-20T15:45:20Z</time></trkpt><trkpt lat="52.2652330063" lon="10.5649150349"><ele>75.12</ele><time>2019-07-20T15:45:39Z</time></trkpt><trkpt lat="52.2660453804" lon="10.5657458492"><ele>74.64</ele><time>2019-07-20T15:45:56Z</time></trkpt><trkpt lat="52.2663454525" lon="10.5671363231"><ele>73.20</ele><time>2019-07-20T15:46:13Z</time></trkpt><trkpt lat="52.2664924711" lon="10.5686542857"><ele>73.68</ele><time>2019-07-20T15:46:30Z</time></trkpt><trkpt lat="52.2666426748" lon="10.5701821391"><ele>72.72</ele><time>2019-07-20T15:46:48Z</time></trkpt><trkpt lat="52.2667465266" lon="10.5715338886"><ele>72.72</ele><time>2019-07-20T15:47:11Z</time></trkpt><trkpt lat="52.2675336711" lon="10.5725297425"><ele>72.72</ele><time>2019-07-20T15:47:31Z</time></trkpt><trkpt lat="52.2682926524" lon="10.5734166317"><ele>73.20</ele><time>2019-07-20T15:47:59Z</time></trkpt><trkpt lat="52.2690269072" lon="10.5723940395"><ele>72.72</ele><time>2019-07-20T15:48:21Z</time></trkpt><trkpt lat="52.2696467489" lon="10.5712615605"><ele>72.72</ele><time>2019-07-20T15:48:42Z</time></trkpt><trkpt lat="52.2704631463" lon="10.5707557127"><ele>73.68</ele><time>2019-07-20T15:49:08Z</time></trkpt><trkpt lat="52.2713273205" lon="10.5700966436"><ele>73.68</ele><time>2019-07-20T15:49:32Z</time></trkpt><trkpt lat="52.2720277961" lon="10.5708314851"><ele>74.16</ele><time>2019-07-20T15:49:57Z</time></trkpt><trkpt lat="52.2726354003" lon="10.5721463542"><ele>73.20</ele><time>2019-07-20T15:50:19Z</time></trkpt><trkpt lat="52.2732484527" lon="10.5735164601"><ele>73.68</ele><time>2019-07-20T15:50:40Z</time></trkpt><trkpt lat="52.2739113774" lon="10.5747537967"><ele>74.16</ele><time>2019-07-20T15:51:02Z</time></trkpt><trkpt lat="52.2747613862" lon="10.5756829306"><ele>74.16</ele><time>2019-07-20T15:51:25Z</time></trkpt><trkpt lat="52.2757184319" lon="10.5757758021"><ele>73.68</ele><time>2019-07-20T15:52:00Z</time></trkpt><trkpt lat="52.2765857913" lon="10.5748787709"><ele>75.12</ele><time>2019-07-20T15:52:35Z</time></trkpt><trkpt lat="52.2773876041" lon="10.5745082069"><ele>77.52</ele><time>2019-07-20T15:53:02Z</time></trkpt><trkpt lat="52.2778636962" lon="10.5759537499"><ele>77.04</ele><time>2019-07-20T15:53:25Z</time></trkpt><trkpt lat="52.2784420475" lon="10.5773493368"><ele>77.04</ele><time>2019-07-20T15:53:44Z</time></trkpt><trkpt lat="52.2789787408" lon="10.5788023397"><ele>75.60</ele><time>2019-07-20T15:54:04Z</time></trkpt><trkpt lat="52.2794338781" lon="10.5802034587"><ele>74.64</ele><time>2019-07-20T15:54:21Z</time></trkpt><trkpt lat="52.2799735889" lon="10.5814041663"><ele>74.16</ele><time>2019-07-20T15:54:42Z</time></trkpt><trkpt lat="52.2809310537" lon="10.5807759427"><ele>75.60</ele><time>2019-07-20T15:55:07Z</time></trkpt><trkpt lat="52.2818821482" lon="10.5801033787"><ele>76.56</ele><time>2019-07-20T15:55:28Z</time></trkpt><trkpt lat="52.2826564685" lon="10.5800239183"><ele>78.97</ele><time>2019-07-20T15:55:52Z</time></trkpt><trkpt lat="52.2830986138" lon="10.5813499354"><ele>79.93</ele><time>2019-07-20T15:56:11Z</time></trkpt><trkpt lat="52.2835690062" lon="10.5827140063"><ele>78.97</ele><time>2019-07-20T15:56:32Z</time></trkpt><trkpt lat="52.2841207031" lon="10.5828020163"><ele>78.97</ele><time>2019-07-20T15:57:29Z</time></trkpt><trkpt lat="52.2849559598" lon="10.5821434502"><ele>79.93</ele><time>2019-07-20T15:57:48Z</time></trkpt><trkpt lat="52.2859194595" lon="10.5822190549"><ele>79.45</ele><time>2019-07-20T15:58:05Z</time></trkpt><trkpt lat="52.2868210170" lon="10.5824752059"><ele>79.45</ele><time>2019-07-20T15:58:21Z</time></trkpt><trkpt lat="52.2876538429" lon="10.5830871686"><ele>80.41</ele><time>2019-07-20T15:58:39Z</time></trkpt><trkpt lat="52.2879164480" lon="10.5844975077"><ele>81.37</ele><time>2019-07-20T15:58:56Z</time></trkpt><trkpt lat="52.2881868482" lon="10.5859791767"><ele>81.85</ele><time>2019-07-20T15:59:14Z</time></trkpt><trkpt lat="52.2884544823" lon="10.5874396395"><ele>82.33</ele><time>2019-07-20T15:59:31Z</time></trkpt><trkpt lat="52.2889794409" lon="10.5882385187"><ele>80.89</ele><time>2019-07-20T15:59:54Z</time></trkpt><trkpt lat="52.2899121791" lon="10.5883743055"><ele>75.60</ele><time>2019-07-20T16:00:11Z</time></trkpt><trkpt lat="52.2908071149" lon="10.5879060924"><ele>72.72</ele><time>2019-07-20T16:00:29Z</time></trkpt><trkpt lat="52.2915820219" lon="10.5869969074"><ele>70.79</ele><time>2019-07-20T16:00:54Z</time></trkpt><trkpt lat="52.2924917098" lon="10.5865534209"><ele>69.35</ele><time>2019-07-20T16:01:16Z</time></trkpt><trkpt lat="52.2932687122" lon="10.5857926793"><ele>67.91</ele><time>2019-07-20T16:01:35Z</time></trkpt><trkpt lat="52.2935920861" lon="10.5871104822"><ele>67.43</ele><time>2019-07-20T16:01:58Z</time></trkpt><trkpt lat="52.2938783281" lon="10.5885798298"><ele>67.43</ele><time>2019-07-20T16:02:17Z</time></trkpt><trkpt lat="52.2941471357" lon="10.5900342576"><ele>66.95</ele><time>2019-07-20T16:02:35Z</time></trkpt><trkpt lat="52.2946869303" lon="10.5907324702"><ele>66.47</ele><time>2019-07-20T16:02:55Z</time></trkpt><trkpt lat="52.2955995519" lon="10.5901652668"><ele>66.95</ele><time>2019-07-20T16:03:12Z</time></trkpt><trkpt lat="52.2964762151" lon="10.5896080378"><ele>67.43</ele><time>2019-07-20T16:03:29Z</time></trkpt><trkpt lat="52.2973748390" lon="10.5890431814"><ele>67.43</ele><time>2019-07-20T16:03:46Z</time></trkpt><trkpt lat="52.2980587184" lon="10.5894425791"><ele>66.47</ele><time>2019-07-20T16:04:07Z</time></trkpt><trkpt lat="52.2985364031" lon="10.5906564463"><ele>68.87</ele><time>2019-07-20T16:04:27Z</time></trkpt><trkpt lat="52.2992558219" lon="10.5916201137"><ele>67.43</ele><time>2019-07-20T16:04:44Z</time></trkpt><trkpt lat="52.2999782581" lon="10.5925322324"><ele>67.91</ele><time>2019-07-20T16:05:00Z</time></trkpt><trkpt lat="52.3005178012" lon="10.5936671421"><ele>67.91</ele><time>2019-07-20T16:05:16Z</time></trkpt><trkpt lat="52.3003327288" lon="10.5951928999"><ele>67.43</ele><time>2019-07-20T16:05:32Z</time></trkpt><trkpt lat="52.3001520988" lon="10.5966926739"><ele>67.91</ele><time>2019-07-20T16:05:48Z</time></trkpt><trkpt lat="52.2999569681" lon="10.5981670506"><ele>69.35</ele><time>2019-07-20T16:06:05Z</time></trkpt><trkpt lat="52.3007510696" lon="10.5983265582"><ele>68.87</ele><time>2019-07-20T16:06:23Z</time></trkpt><trkpt lat="52.3012714181" lon="10.5990766548"><ele>68.39</ele><time>2019-07-20T16:06:41Z</time></trkpt><trkpt lat="52.3013322707" lon="10.6005867384"><ele>68.87</ele><time>2019-07-20T16:06:58Z</time></trkpt><trkpt lat="52.3013992421" lon="10.6020762026"><ele>69.35</ele><time>2019-07-20T16:07:15Z</time></trkpt><trkpt lat="52.3020091094" lon="10.6031960249"><ele>69.35</ele><time>2019-07-20T16:07:35Z</time></trkpt><trkpt lat="52.3027089145" lon="10.6041796412"><ele>69.83</ele><time>2019-07-20T16:07:52Z</time></trkpt><trkpt lat="52.3033798020" lon="10.6051718071"><ele>69.35</ele><time>2019-07-20T16:08:09Z</time></trkpt><trkpt lat="52.3040739913" lon="10.6061842572"><ele>69.83</ele><time>2019-07-20T16:08:26Z</time></trkpt><trkpt lat="52.3047636542" lon="10.6071828771"><ele>69.83</ele><time>2019-07-20T16:08:43Z</time></trkpt><trkpt lat="52.3053811491" lon="10.6080873683"><ele>69.35</ele><time>2019-07-20T16:09:03Z</time></trkpt><trkpt lat="52.3060791101" lon="10.6091272272"><ele>68.87</ele><time>2019-07-20T16:09:21Z</time></trkpt><trkpt lat="52.3067764845" lon="10.6101062335"><ele>68.39</ele><time>2019-07-20T16:09:38Z</time></trkpt><trkpt lat="52.3074821569" lon="10.6111379620"><ele>68.39</ele><time>2019-07-20T16:09:54Z</time></trkpt><trkpt lat="52.3082040064" lon="10.6120998692"><ele>68.87</ele><time>2019-07-20T16:10:09Z</time></trkpt><trkpt lat="52.3088672664" lon="10.6131272390"><ele>69.35</ele><time>2019-07-20T16:10:25Z</time></trkpt><trkpt lat="52.3095355555" lon="10.6141343247"><ele>69.35</ele><time>2019-07-20T16:10:41Z</time></trkpt><trkpt lat="52.3101746757" lon="10.6150786299"><ele>68.39</ele><time>2019-07-20T16:10:57Z</time></trkpt><trkpt lat="52.3107967805" lon="10.6161233503"><ele>68.87</ele><time>2019-07-20T16:11:13Z</time></trkpt><trkpt lat="52.3114271834" lon="10.6172276661"><ele>69.35</ele><time>2019-07-20T16:11:29Z</time></trkpt><trkpt lat="52.3120519705" lon="10.6183050759"><ele>69.83</ele><time>2019-07-20T16:11:45Z</time></trkpt><trkpt lat="52.3126774281" lon="10.6193626206"><ele>69.83</ele><time>2019-07-20T16:12:01Z</time></trkpt><trkpt lat="52.3133202363" lon="10.6204738095"><ele>69.83</ele><time>2019-07-20T16:12:17Z</time></trkpt><trkpt lat="52.3139543273" lon="10.6215455197"><ele>69.83</ele><time>2019-07-20T16:12:33Z</time></trkpt><trkpt lat="52.3144545592" lon="10.6227363367"><ele>70.31</ele><time>2019-07-20T16:12:49Z</time></trkpt><trkpt lat="52.3147909250" lon="10.6241307501"><ele>71.27</ele><time>2019-07-20T16:13:05Z</time></trkpt><trkpt lat="52.3151324876" lon="10.6255822442"><ele>72.24</ele><time>2019-07-20T16:13:22Z</time></trkpt><trkpt lat="52.3154872097" lon="10.6270087603"><ele>72.24</ele><time>2019-07-20T16:13:39Z</time></trkpt><trkpt lat="52.3158249166" lon="10.6284506153"><ele>72.24</ele><time>2019-07-20T16:13:56Z</time></trkpt><trkpt lat="52.3161523975" lon="10.6298417598"><ele>73.68</ele><time>2019-07-20T16:14:13Z</time></trkpt><trkpt lat="52.3165578302" lon="10.6311811879"><ele>73.68</ele><time>2019-07-20T16:14:30Z</time></trkpt><trkpt lat="52.3170164879" lon="10.6324938778"><ele>73.20</ele><time>2019-07-20T16:14:46Z</time></trkpt><trkpt lat="52.3170758318" lon="10.6338661630"><ele>74.16</ele><time>2019-07-20T16:15:06Z</time></trkpt><trkpt lat="52.3168262187" lon="10.6353068445"><ele>76.08</ele><time>2019-07-20T16:15:25Z</time></trkpt><trkpt lat="52.3166325130" lon="10.6367588416"><ele>79.45</ele><time>2019-07-20T16:15:44Z</time></trkpt><trkpt lat="52.3164388072" lon="10.6382281892"><ele>81.37</ele><time>2019-07-20T16:16:02Z</time></trkpt><trkpt lat="52.3162939679" lon="10.6397453975"><ele>83.29</ele><time>2019-07-20T16:16:20Z</time></trkpt><trkpt lat="52.3164874222" lon="10.6410166807"><ele>82.33</ele><time>2019-07-20T16:17:02Z</time></trkpt><trkpt lat="52.3169997241" lon="10.6423701905"><ele>81.85</ele><time>2019-07-20T16:17:18Z</time></trkpt><trkpt lat="52.3173922487" lon="10.6437751651"><ele>81.37</ele><time>2019-07-20T16:17:32Z</time></trkpt><trkpt lat="52.3177586216" lon="10.6451519765"><ele>81.37</ele><time>2019-07-20T16:17:46Z</time></trkpt><trkpt lat="52.3181524035" lon="10.6465996988"><ele>81.85</ele><time>2019-07-20T16:18:01Z</time></trkpt><trkpt lat="52.3185519688" lon="10.6479810365"><ele>81.37</ele><time>2019-07-20T16:18:15Z</time></trkpt><trkpt lat="52.3189644422" lon="10.6494171079"><ele>81.85</ele><time>2019-07-20T16:18:30Z</time></trkpt><trkpt lat="52.3193830345" lon="10.6507779937"><ele>82.33</ele><time>2019-07-20T16:18:45Z</time></trkpt><trkpt lat="52.3198027164" lon="10.6521295756"><ele>81.37</ele><time>2019-07-20T16:19:00Z</time></trkpt><trkpt lat="52.3202329595" lon="10.6535418425"><ele>81.85</ele><time>2019-07-20T16:19:15Z</time></trkpt><trkpt lat="52.3207115661" lon="10.6548585556"><ele>81.37</ele><time>2019-07-20T16:19:29Z</time></trkpt><trkpt lat="52.3212348484" lon="10.6561485305"><ele>80.89</ele><time>2019-07-20T16:19:43Z</time></trkpt><trkpt lat="52.3218120262" lon="10.6574712787"><ele>78.97</ele><time>2019-07-20T16:21:31Z</time></trkpt><trkpt lat="52.3225096520" lon="10.6585911009"><ele>76.56</ele><time>2019-07-20T16:21:48Z</time></trkpt><trkpt lat="52.3232291546" lon="10.6596011203"><ele>75.60</ele><time>2019-07-20T16:22:02Z</time></trkpt><trkpt lat="52.3237360083" lon="10.6608597469"><ele>78.00</ele><time>2019-07-20T16:22:16Z</time></trkpt><trkpt lat="52.3242948297" lon="10.6620747875"><ele>78.00</ele><time>2019-07-20T16:22:30Z</time></trkpt><trkpt lat="52.3246316984" lon="10.6634160597"><ele>80.41</ele><time>2019-07-20T16:22:46Z</time></trkpt><trkpt lat="52.3247125000" lon="10.6649175100"><ele>81.37</ele><time>2019-07-20T16:23:01Z</time></trkpt><trkpt lat="52.3247922957" lon="10.6664230675"><ele>83.29</ele><time>2019-07-20T16:23:16Z</time></trkpt><trkpt lat="52.3244344722" lon="10.6673127227"><ele>84.73</ele><time>2019-07-20T16:23:33Z</time></trkpt><trkpt lat="52.3235219344" lon="10.6672030035"><ele>85.21</ele><time>2019-07-20T16:23:48Z</time></trkpt><trkpt lat="52.3230609298" lon="10.6680179760"><ele>85.69</ele><time>2019-07-20T16:24:08Z</time></trkpt><trkpt lat="52.3230836447" lon="10.6695126370"><ele>86.18</ele><time>2019-07-20T16:24:23Z</time></trkpt><trkpt lat="52.3233070225" lon="10.6705236621"><ele>88.58</ele><time>2019-07-20T17:06:05Z</time></trkpt><trkpt lat="52.3233286478" lon="10.6705124304"><ele>83.77</ele><time>2019-07-20T19:18:21Z</time></trkpt><trkpt lat="52.3233121354" lon="10.6704774778"><ele>90.98</ele><time>2019-07-20T20:08:35Z</time></trkpt><trkpt lat="52.3233408015" lon="10.6703466363"><ele>97.71</ele><time>2019-07-20T21:35:33Z</time></trkpt></trkseg><trkseg><trkpt lat="52.3231551424" lon="10.6701679341"><ele>97.71</ele><time>2019-07-20T21:37:33Z</time></trkpt><trkpt lat="52.3236569669" lon="10.6704107579"><ele>95.31</ele><time>2019-07-20T22:03:45Z</time></trkpt></trkseg></trk></gpx>